Oxelosund, Sweden
Current Conditions -  °F | °C
As of 3:20 PM on Sunday 21 Dec 2014 (Local Time) from ESKN Reporting Station
Clear Clear  
Wind Chill: 23°   Ceiling: Unl
Heat Index: 30°   Visibility: 6mi
Dew Point: 25°   Wind: 7mph
Humidity: 80%   Direction: 250°WSW
Pressure: 29.68"   Gusts: NA
Location:  58.67°N, 17.1°E
Report Text: ESKN 211420Z 25006KT CAVOK M01/M04 Q1005 R26/71//67
Loading
Personal Weather Stations






























Interactive Weather Map New forecast layout! Learn more

10-Day Weather Forecast

Advertisements
Track Severe Weather on mobile